Amantha, North Carolina
Current Conditions -  °F | °C
As of 1:35 PM on Thursday 30 Oct 2014 (Local Time) from KTNB Reporting Station
Clear Clear  
Wind Chill: 54°   Ceiling: Unl
Heat Index: 54°   Visibility: 10mi
Dew Point: 22°   Wind: 8mph
Humidity: 29%   Direction: 300°WNW
Pressure: 30.04"   Gusts: NA
Location:  36.2666°N, 81.8431°W
Report Text: KTNB 301735Z AUTO 30007KT 280V340 10SM CLR 12/M05 A3004 RMK AO2 T01221053
Loading
Personal Weather Stations






























Interactive Weather Map
Tropical Storm Tracking
New forecast layout! Learn more

10-Day Weather Forecast

Advertisements
Track Severe Weather on mobile